createdAt,value
2023-04-21T00:01:58.884Z,9.07
2023-04-21T00:04:25.696Z,8.30
2023-04-21T00:06:56.993Z,8.23
2023-04-21T00:09:23.541Z,8.40
2023-04-21T00:11:54.587Z,8.25
2023-04-21T00:14:21.364Z,7.18
2023-04-21T00:16:52.386Z,8.95
2023-04-21T00:19:23.882Z,8.20
2023-04-21T00:21:58.511Z,7.45
2023-04-21T00:24:25.988Z,7.50
2023-04-21T00:26:54.669Z,8.48
2023-04-21T00:29:21.309Z,9.07
2023-04-21T00:31:48.285Z,8.13
2023-04-21T00:34:14.966Z,8.88
2023-04-21T00:36:41.460Z,8.35
2023-04-21T00:39:07.920Z,8.65
2023-04-21T00:41:36.099Z,8.43
2023-04-21T00:44:10.259Z,7.55
2023-04-21T00:46:38.545Z,7.80
2023-04-21T00:49:06.958Z,8.45
2023-04-21T00:51:35.044Z,8.07
2023-04-21T00:54:06.820Z,8.63
2023-04-21T00:56:34.892Z,8.93
2023-04-21T00:59:04.274Z,9.02
2023-04-21T01:01:34.346Z,9.00
2023-04-21T01:04:01.530Z,9.02
2023-04-21T01:06:29.627Z,8.73
2023-04-21T01:08:56.340Z,8.45
2023-04-21T01:11:22.702Z,8.13
2023-04-21T01:13:53.296Z,9.10
2023-04-21T01:16:21.598Z,7.90
2023-04-21T01:18:48.102Z,8.50
2023-04-21T01:21:19.078Z,8.27
2023-04-21T01:23:46.109Z,8.18
2023-04-21T01:26:17.213Z,9.10
2023-04-21T01:28:44.116Z,8.25
2023-04-21T01:31:10.640Z,9.10
2023-04-21T01:33:42.143Z,8.23
2023-04-21T01:36:09.719Z,8.13
2023-04-21T01:38:42.556Z,7.28
2023-04-21T01:41:12.550Z,9.15
2023-04-21T01:43:39.227Z,8.85
2023-04-21T01:46:06.573Z,8.95
2023-04-21T01:48:33.105Z,7.70
2023-04-21T01:50:59.559Z,9.95
2023-04-21T01:53:26.891Z,8.48
2023-04-21T01:55:53.330Z,8.32
2023-04-21T01:58:22.863Z,8.15
2023-04-21T02:00:49.434Z,9.15
2023-04-21T02:03:16.216Z,8.15
2023-04-21T02:05:42.770Z,9.80
2023-04-21T02:08:09.258Z,8.55
2023-04-21T02:10:35.806Z,8.55
2023-04-21T02:13:02.289Z,8.93
2023-04-21T02:15:31.435Z,8.85
2023-04-21T02:17:58.051Z,8.55
2023-04-21T02:20:24.553Z,9.18
2023-04-21T02:22:50.928Z,8.07
2023-04-21T02:25:17.367Z,7.68
2023-04-21T02:27:43.732Z,8.93
2023-04-21T02:30:11.145Z,8.82
2023-04-21T02:32:38.133Z,9.13
2023-04-21T02:35:08.232Z,7.88
2023-04-21T02:37:34.786Z,8.10
2023-04-21T02:40:03.709Z,7.55
2023-04-21T02:42:30.290Z,7.20
2023-04-21T02:44:59.315Z,7.85
2023-04-21T02:47:26.097Z,8.20
2023-04-21T02:49:52.653Z,7.55
2023-04-21T02:52:19.337Z,8.13
2023-04-21T02:54:45.807Z,7.90
2023-04-21T02:57:12.302Z,8.00
2023-04-21T02:59:38.694Z,6.43
2023-04-21T03:02:05.169Z,7.63
2023-04-21T03:04:32.400Z,7.65
2023-04-21T03:07:01.685Z,8.00
2023-04-21T03:09:30.487Z,7.80
2023-04-21T03:11:59.330Z,8.80
2023-04-21T03:14:33.687Z,7.78
2023-04-21T03:17:00.182Z,8.18
2023-04-21T03:19:26.728Z,9.82
2023-04-21T03:21:53.169Z,8.60
2023-04-21T03:24:19.655Z,8.82
2023-04-21T03:26:48.304Z,10.10
2023-04-21T03:29:18.070Z,10.50
2023-04-21T03:31:44.963Z,9.98
2023-04-21T03:34:13.911Z,9.93
2023-04-21T03:36:40.578Z,10.35
2023-04-21T03:39:19.090Z,9.40
2023-04-21T03:41:46.396Z,11.40
2023-04-21T03:44:12.759Z,10.23
2023-04-21T03:46:39.112Z,9.60
2023-04-21T03:49:05.621Z,9.05
2023-04-21T03:51:32.424Z,9.02
2023-04-21T03:54:01.154Z,8.20
2023-04-21T03:56:27.634Z,8.23
2023-04-21T03:58:56.575Z,7.13
2023-04-21T04:01:23.010Z,7.30
2023-04-21T04:03:49.647Z,9.05
2023-04-21T04:06:16.310Z,7.57
2023-04-21T04:08:42.650Z,10.50
2023-04-21T04:11:11.541Z,9.82
2023-04-21T04:13:38.015Z,8.05
2023-04-21T04:16:07.258Z,9.73
2023-04-21T04:18:33.850Z,8.57
2023-04-21T04:21:08.289Z,8.13
2023-04-21T04:23:35.482Z,7.32
2023-04-21T04:26:04.529Z,11.85
2023-04-21T04:28:33.698Z,15.23
2023-04-21T04:31:00.761Z,8.23
2023-04-21T04:33:27.403Z,8.25
2023-04-21T04:35:54.604Z,8.07
2023-04-21T04:38:23.056Z,8.65
2023-04-21T04:40:57.447Z,6.38
2023-04-21T04:43:25.433Z,8.88
2023-04-21T04:45:54.479Z,9.48
2023-04-21T04:48:20.910Z,9.63
2023-04-21T04:50:47.562Z,12.63
2023-04-21T04:53:14.034Z,13.38
2023-04-21T04:55:40.619Z,13.98
2023-04-21T04:58:07.118Z,8.63
2023-04-21T05:00:33.503Z,10.02
2023-04-21T05:03:00.016Z,9.48
2023-04-21T05:05:26.585Z,9.88
2023-04-21T05:07:55.523Z,8.90
2023-04-21T05:10:21.941Z,8.52
2023-04-21T05:12:50.601Z,9.98
2023-04-21T05:15:18.391Z,11.05
2023-04-21T05:17:44.787Z,11.20
2023-04-21T05:20:11.734Z,11.82
2023-04-21T05:22:38.514Z,12.55
2023-04-21T05:25:10.312Z,16.02
2023-04-21T05:27:36.776Z,15.40
2023-04-21T05:30:03.280Z,14.90
2023-04-21T05:32:29.751Z,11.30
2023-04-21T05:34:56.215Z,10.70
2023-04-21T05:37:22.594Z,11.98
2023-04-21T05:39:48.957Z,12.38
2023-04-21T05:42:15.708Z,13.32
2023-04-21T05:44:42.078Z,12.88
2023-04-21T05:47:08.517Z,12.20
2023-04-21T05:49:35.105Z,12.02
2023-04-21T05:52:01.497Z,11.95
2023-04-21T05:54:27.912Z,11.05
2023-04-21T05:56:54.291Z,11.07
2023-04-21T05:59:20.774Z,11.02
2023-04-21T06:01:50.113Z,10.68
2023-04-21T06:04:22.345Z,10.38
2023-04-21T06:06:49.050Z,10.65
2023-04-21T06:09:17.858Z,11.75
2023-04-21T06:11:44.364Z,12.07
2023-04-21T06:14:10.844Z,11.75
2023-04-21T06:16:37.255Z,11.85
2023-04-21T06:19:03.807Z,12.13
2023-04-21T06:21:30.804Z,11.77
2023-04-21T06:23:57.313Z,11.07
2023-04-21T06:26:23.836Z,11.65
2023-04-21T06:28:50.381Z,11.15
2023-04-21T06:31:17.700Z,11.60
2023-04-21T06:33:44.270Z,12.10
2023-04-21T06:36:10.741Z,11.38
2023-04-21T06:38:37.333Z,11.55
2023-04-21T06:41:04.647Z,11.70
2023-04-21T06:43:31.236Z,10.43
2023-04-21T06:46:02.649Z,12.23
2023-04-21T06:48:30.348Z,11.90
2023-04-21T06:50:56.925Z,11.52
2023-04-21T06:53:23.530Z,12.88
2023-04-21T06:55:53.391Z,12.27
2023-04-21T06:58:22.087Z,11.93
2023-04-21T07:00:48.589Z,12.63
2023-04-21T07:03:17.979Z,11.07
2023-04-21T07:05:44.599Z,11.70
2023-04-21T07:08:11.015Z,11.52
2023-04-21T07:10:37.477Z,11.10
2023-04-21T07:13:04.027Z,11.57
2023-04-21T07:15:32.643Z,12.00
2023-04-21T07:17:59.231Z,12.90
2023-04-21T07:20:25.927Z,12.57
2023-04-21T07:22:54.977Z,12.70
2023-04-21T07:25:21.563Z,13.77
2023-04-21T07:27:48.017Z,12.57
2023-04-21T07:30:14.770Z,12.80
2023-04-21T07:32:41.283Z,12.95
2023-04-21T07:35:08.365Z,14.05
2023-04-21T07:37:35.012Z,12.77
2023-04-21T07:40:01.610Z,14.80
2023-04-21T07:42:28.202Z,13.30
2023-04-21T07:44:56.165Z,15.05
2023-04-21T07:47:22.596Z,14.65
2023-04-21T07:49:49.130Z,15.02
2023-04-21T07:52:15.585Z,13.73
2023-04-21T07:54:44.363Z,14.20
2023-04-21T07:57:11.300Z,14.75
2023-04-21T07:59:37.993Z,14.68
2023-04-21T08:02:04.807Z,15.55
2023-04-21T08:04:31.530Z,15.38
2023-04-21T08:07:00.836Z,16.15
2023-04-21T08:09:28.046Z,15.85
2023-04-21T08:11:55.313Z,16.92
2023-04-21T08:14:22.106Z,15.05
2023-04-21T08:16:51.349Z,14.63
2023-04-21T08:19:18.066Z,13.63
2023-04-21T08:21:44.622Z,14.13
2023-04-21T08:24:11.177Z,15.77
2023-04-21T08:26:37.698Z,13.18
2023-04-21T08:29:07.029Z,13.23
2023-04-21T08:31:33.896Z,13.55
2023-04-21T08:34:03.057Z,12.15
2023-04-21T08:36:30.770Z,12.77
2023-04-21T08:39:00.250Z,12.00
2023-04-21T08:41:27.094Z,11.52
2023-04-21T08:43:55.918Z,11.38
2023-04-21T08:46:23.153Z,11.32
2023-04-21T08:48:49.855Z,11.70
2023-04-21T08:51:22.984Z,13.25
2023-04-21T08:53:49.726Z,12.48
2023-04-21T08:56:18.327Z,12.20
2023-04-21T08:58:47.154Z,12.27
2023-04-21T09:01:13.864Z,12.57
2023-04-21T09:03:40.675Z,10.57
2023-04-21T09:06:09.755Z,10.95
2023-04-21T09:08:43.687Z,12.35
2023-04-21T09:11:14.385Z,13.52
2023-04-21T09:13:43.145Z,12.23
2023-04-21T09:16:23.681Z,13.52
2023-04-21T09:18:51.340Z,13.27
2023-04-21T09:21:19.667Z,12.50
2023-04-21T09:23:53.493Z,10.52
2023-04-21T09:26:23.075Z,11.10
2023-04-21T09:28:51.115Z,11.38
2023-04-21T09:31:21.881Z,10.15
2023-04-21T09:39:08.934Z,8.40
2023-04-21T09:41:41.418Z,9.02
2023-04-21T09:44:10.176Z,8.32
2023-04-21T09:46:37.391Z,10.10
2023-04-21T09:49:04.876Z,9.00
2023-04-21T09:52:05.271Z,9.45
2023-04-21T09:54:29.672Z,9.05
2023-04-21T09:56:59.807Z,8.35
2023-04-21T09:59:32.970Z,9.20
2023-04-21T10:02:00.616Z,8.93
2023-04-21T10:04:31.262Z,9.10
2023-04-21T10:07:00.967Z,9.33
2023-04-21T10:09:50.793Z,8.25
2023-04-21T10:12:18.447Z,9.02
2023-04-21T10:14:44.921Z,8.90
2023-04-21T10:17:11.512Z,9.63
2023-04-21T10:19:47.638Z,8.77
2023-04-21T10:22:14.094Z,8.10
2023-04-21T10:24:42.181Z,8.07
2023-04-21T10:27:12.980Z,8.18
2023-04-21T10:29:54.724Z,8.48
2023-04-21T10:32:41.363Z,7.55
2023-04-21T10:35:13.548Z,7.90
2023-04-21T10:37:42.460Z,8.43
2023-04-21T10:40:44.166Z,6.95
2023-04-21T10:43:42.550Z,9.15
2023-04-21T10:46:40.305Z,6.55
2023-04-21T10:49:08.062Z,7.13
2023-04-21T10:52:03.180Z,7.40
2023-04-21T10:54:36.968Z,6.30
2023-04-21T10:57:07.738Z,7.18
2023-04-21T10:59:35.067Z,7.03
2023-04-21T11:02:08.940Z,6.82
2023-04-21T11:04:35.960Z,6.55
2023-04-21T11:07:13.325Z,5.95
2023-04-21T11:09:41.626Z,6.32
2023-04-21T11:12:14.538Z,6.25
2023-04-21T11:14:47.789Z,6.93
2023-04-21T11:17:16.404Z,6.75
2023-04-21T11:19:52.555Z,6.93
2023-04-21T11:22:24.250Z,6.10
2023-04-21T11:24:54.385Z,5.93
2023-04-21T11:27:22.320Z,6.07
2023-04-21T11:29:52.307Z,6.90
2023-04-21T11:32:19.206Z,7.20
2023-04-21T11:34:45.831Z,6.35
2023-04-21T11:37:20.895Z,6.70
2023-04-21T11:39:47.346Z,6.00
2023-04-21T11:42:21.164Z,5.50
2023-04-21T11:44:47.566Z,5.88
2023-04-21T11:47:22.874Z,6.05
2023-04-21T11:50:01.470Z,5.88
2023-04-21T11:52:30.944Z,6.63
2023-04-21T11:55:01.786Z,6.13
2023-04-21T11:57:32.560Z,4.90
2023-04-21T12:00:00.916Z,5.30
2023-04-21T12:02:32.818Z,5.38
2023-04-21T12:05:05.214Z,5.65
2023-04-21T12:07:58.305Z,6.07
2023-04-21T12:10:24.694Z,5.45
2023-04-21T12:12:51.764Z,5.82
2023-04-21T12:15:21.367Z,4.90
2023-04-21T12:17:52.447Z,5.38
2023-04-21T12:20:22.256Z,5.18
2023-04-21T12:22:53.954Z,6.18
2023-04-21T12:25:20.378Z,5.82
2023-04-21T12:27:50.935Z,6.32
2023-04-21T12:30:18.088Z,6.00
2023-04-21T12:32:44.648Z,5.03
2023-04-21T12:35:14.257Z,7.05
2023-04-21T12:37:41.005Z,5.93
2023-04-21T12:40:08.152Z,6.57
2023-04-21T12:42:37.240Z,7.07
2023-04-21T12:45:07.225Z,6.60
2023-04-21T12:47:34.603Z,7.30
2023-04-21T12:50:01.291Z,7.43
2023-04-21T12:52:30.312Z,6.18
2023-04-21T12:54:56.659Z,6.50
2023-04-21T12:57:23.121Z,6.75
2023-04-21T12:59:49.570Z,7.50
2023-04-21T13:02:18.787Z,7.65
2023-04-21T13:04:45.348Z,7.00
2023-04-21T13:07:12.091Z,7.68
2023-04-21T13:09:38.725Z,6.68
2023-04-21T13:12:07.894Z,6.95
2023-04-21T13:14:37.343Z,6.80
2023-04-21T13:17:06.346Z,7.22
2023-04-21T13:19:33.238Z,6.63
2023-04-21T13:22:00.116Z,6.97
2023-04-21T13:24:26.798Z,6.88
2023-04-21T13:26:56.046Z,7.70
2023-04-21T13:29:29.289Z,7.45
2023-04-21T13:31:56.891Z,7.72
2023-04-21T13:34:23.284Z,7.47
2023-04-21T13:36:50.604Z,7.25
2023-04-21T13:39:17.201Z,7.13
2023-04-21T13:41:43.680Z,7.20
2023-04-21T13:44:10.110Z,7.13
2023-04-21T13:46:37.969Z,6.22
2023-04-21T13:49:04.528Z,6.13
2023-04-21T13:51:32.195Z,5.78
2023-04-21T13:53:58.691Z,7.50
2023-04-21T13:56:25.499Z,7.75
2023-04-21T13:58:52.031Z,6.18
2023-04-21T14:01:20.670Z,6.68
2023-04-21T14:03:50.747Z,6.28
2023-04-21T14:06:17.493Z,5.95
2023-04-21T14:08:46.117Z,6.25
2023-04-21T14:11:14.980Z,5.97
2023-04-21T14:13:48.055Z,5.75
2023-04-21T14:16:26.659Z,6.22
2023-04-21T14:18:53.580Z,6.95
2023-04-21T14:21:19.990Z,6.68
2023-04-21T14:23:46.598Z,7.10
2023-04-21T14:26:13.310Z,6.72
2023-04-21T14:28:42.498Z,6.72
2023-04-21T14:31:09.231Z,6.68
2023-04-21T14:33:35.896Z,6.80
2023-04-21T14:36:02.371Z,7.43
2023-04-21T14:38:30.594Z,7.95
2023-04-21T14:40:57.198Z,6.22
2023-04-21T14:43:23.736Z,6.13
2023-04-21T14:45:50.336Z,6.00
2023-04-21T14:48:17.278Z,6.60
2023-04-21T14:50:43.952Z,7.20
2023-04-21T14:53:10.952Z,6.78
2023-04-21T14:55:44.533Z,7.00
2023-04-21T14:58:10.945Z,7.57
2023-04-21T15:00:38.889Z,7.28
2023-04-21T15:03:07.897Z,7.63
2023-04-21T15:05:36.851Z,7.15
2023-04-21T15:08:03.532Z,7.00
2023-04-21T15:10:32.197Z,6.57
2023-04-21T15:12:58.921Z,6.65
2023-04-21T15:15:25.612Z,5.95
2023-04-21T15:17:54.609Z,5.28
2023-04-21T15:20:32.550Z,6.53
2023-04-21T15:23:07.742Z,7.20
2023-04-21T15:25:36.223Z,6.95
2023-04-21T15:28:05.056Z,6.65
2023-04-21T15:30:31.508Z,6.65
2023-04-21T15:32:57.969Z,5.88
2023-04-21T15:35:24.538Z,6.00
2023-04-21T15:37:53.331Z,5.53
2023-04-21T15:40:19.800Z,5.88
2023-04-21T15:42:46.330Z,6.93
2023-04-21T15:45:12.816Z,7.20
2023-04-21T15:47:39.511Z,6.10
2023-04-21T15:50:06.658Z,6.85
2023-04-21T15:52:36.136Z,6.60
2023-04-21T15:55:02.721Z,6.90
2023-04-21T15:57:29.736Z,6.18
2023-04-21T15:59:58.508Z,6.03
2023-04-21T16:02:25.121Z,5.90
2023-04-21T16:04:52.121Z,7.32
2023-04-21T16:07:18.799Z,6.20
2023-04-21T16:09:45.231Z,5.70
2023-04-21T16:12:11.675Z,6.32
2023-04-21T16:14:55.259Z,6.53
2023-04-21T16:17:26.513Z,6.72
2023-04-21T16:19:53.829Z,6.80
2023-04-21T16:22:20.398Z,6.35
2023-04-21T16:24:47.117Z,6.68
2023-04-21T16:27:13.663Z,6.70
2023-04-21T16:29:40.103Z,5.65
2023-04-21T16:32:06.984Z,2.08
2023-04-21T16:34:33.705Z,1.10
2023-04-21T16:37:00.589Z,2.83
2023-04-21T16:39:27.651Z,1.80
2023-04-21T16:41:54.164Z,1.42
2023-04-21T16:44:22.887Z,3.17
2023-04-21T16:46:49.436Z,2.40
2023-04-21T16:49:16.077Z,0.82
2023-04-21T16:51:44.889Z,0.90
2023-04-21T16:54:16.420Z,1.17
2023-04-21T16:56:45.791Z,0.85
2023-04-21T16:59:12.156Z,1.23
2023-04-21T17:01:38.612Z,0.60
2023-04-21T17:04:05.168Z,1.10
2023-04-21T17:06:34.239Z,0.65
2023-04-21T17:09:00.619Z,1.60
2023-04-21T17:11:31.281Z,1.05
2023-04-21T17:13:57.837Z,1.55
2023-04-21T17:16:26.927Z,1.45
2023-04-21T17:18:54.806Z,1.10
2023-04-21T17:21:21.163Z,1.48
2023-04-21T17:23:47.670Z,0.63
2023-04-21T17:26:15.126Z,0.70
2023-04-21T17:28:43.896Z,0.68
2023-04-21T17:31:15.783Z,0.80
2023-04-21T17:34:04.164Z,0.90
2023-04-21T17:36:30.953Z,1.00
2023-04-21T17:38:58.266Z,0.80
2023-04-21T17:41:27.649Z,1.25
2023-04-21T17:43:57.204Z,0.85
2023-04-21T17:46:25.351Z,0.70
2023-04-21T17:48:54.531Z,0.95
2023-04-21T17:51:21.173Z,1.95
2023-04-21T17:53:47.831Z,1.48
2023-04-21T17:56:14.495Z,1.83
2023-04-21T17:59:00.062Z,1.83
2023-04-21T18:01:26.898Z,1.40
2023-04-21T18:03:57.033Z,1.20
2023-04-21T18:06:27.401Z,0.98
2023-04-21T18:08:56.276Z,2.10
2023-04-21T18:11:23.066Z,5.80
2023-04-21T18:13:49.619Z,2.53
2023-04-21T18:16:16.399Z,22.17
2023-04-21T18:18:42.798Z,69.68
2023-04-21T18:21:13.872Z,32.15
2023-04-21T18:23:40.363Z,39.30
2023-04-21T18:26:07.701Z,58.10
2023-04-21T18:28:36.766Z,8.32
2023-04-21T18:31:03.529Z,3.78
2023-04-21T18:33:34.595Z,1.40
2023-04-21T18:36:01.331Z,1.63
2023-04-21T18:38:27.725Z,1.00
2023-04-21T18:40:56.390Z,5.07
2023-04-21T18:43:25.447Z,6.38
2023-04-21T18:45:53.980Z,9.93
2023-04-21T18:48:22.811Z,2.47
2023-04-21T18:50:49.242Z,2.58
2023-04-21T18:53:15.713Z,8.52
2023-04-21T18:55:42.055Z,8.23
2023-04-21T18:58:14.786Z,56.67
2023-04-21T19:00:41.242Z,33.80
2023-04-21T19:03:11.085Z,14.15
2023-04-21T19:05:40.667Z,9.13
2023-04-21T19:08:09.569Z,3.13
2023-04-21T19:10:37.684Z,4.85
2023-04-21T19:13:04.441Z,3.42
2023-04-21T19:15:31.001Z,4.40
2023-04-21T19:17:57.607Z,4.05
2023-04-21T19:20:24.027Z,3.45
2023-04-21T19:22:50.862Z,2.78
2023-04-21T19:25:17.570Z,2.38
2023-04-21T19:27:44.597Z,1.95
2023-04-21T19:30:16.118Z,1.80
2023-04-21T19:32:42.551Z,2.03
2023-04-21T19:35:09.371Z,1.83
2023-04-21T19:37:36.257Z,1.90
2023-04-21T19:40:03.355Z,1.77
2023-04-21T19:42:30.432Z,1.75
2023-04-21T19:44:56.943Z,1.25
2023-04-21T19:47:23.301Z,3.40
2023-04-21T19:49:49.818Z,3.17
2023-04-21T19:52:18.496Z,2.60
2023-04-21T19:54:44.911Z,1.80
2023-04-21T19:57:11.345Z,2.47
2023-04-21T19:59:38.225Z,2.40
2023-04-21T20:02:05.124Z,2.63
2023-04-21T20:04:32.120Z,2.28
2023-04-21T20:06:58.831Z,2.45
2023-04-21T20:09:25.308Z,3.78
2023-04-21T20:11:51.703Z,3.42
2023-04-21T20:14:18.858Z,2.65
2023-04-21T20:16:46.447Z,2.75
2023-04-21T20:19:17.229Z,2.30
2023-04-21T20:21:44.167Z,2.33
2023-04-21T20:24:10.520Z,2.95
2023-04-21T20:26:37.147Z,5.22
2023-04-21T20:29:04.041Z,3.05
2023-04-21T20:31:30.471Z,3.03
2023-04-21T20:33:56.900Z,2.45
2023-04-21T20:36:23.400Z,1.70
2023-04-21T20:38:50.569Z,1.95
2023-04-21T20:41:24.173Z,1.95
2023-04-21T20:43:54.055Z,2.50
2023-04-21T20:46:20.443Z,2.10
2023-04-21T20:48:47.005Z,1.70
2023-04-21T20:51:13.491Z,1.75
2023-04-21T20:53:42.665Z,2.05
2023-04-21T20:56:11.666Z,2.08
2023-04-21T20:58:43.218Z,1.80
2023-04-21T21:01:09.751Z,1.90
2023-04-21T21:03:38.953Z,2.83
2023-04-21T21:06:05.788Z,2.00
2023-04-21T21:08:32.191Z,1.83
2023-04-21T21:10:58.612Z,1.52
2023-04-21T21:13:25.086Z,1.30
2023-04-21T21:15:52.144Z,1.73
2023-04-21T21:18:21.258Z,1.50
2023-04-21T21:20:49.933Z,1.40
2023-04-21T21:23:16.271Z,1.60
2023-04-21T21:25:42.709Z,1.50
2023-04-21T21:28:11.564Z,1.60
2023-04-21T21:30:37.897Z,1.85
2023-04-21T21:33:04.345Z,1.70
2023-04-21T21:35:30.911Z,1.40
2023-04-21T21:37:57.355Z,1.10
2023-04-21T21:40:23.875Z,1.20
2023-04-21T21:42:51.313Z,1.45
2023-04-21T21:45:17.777Z,1.10
2023-04-21T21:47:45.843Z,1.50
2023-04-21T21:50:12.582Z,1.60
2023-04-21T21:52:39.101Z,1.00
2023-04-21T21:55:06.377Z,1.30
2023-04-21T21:57:32.917Z,0.77
2023-04-21T22:00:02.339Z,0.80
2023-04-21T22:02:29.126Z,1.13
2023-04-21T22:04:56.347Z,0.73
2023-04-21T22:07:25.090Z,1.02
2023-04-21T22:09:51.807Z,1.20
2023-04-21T22:12:23.160Z,0.93
2023-04-21T22:14:49.618Z,0.90
2023-04-21T22:17:15.993Z,1.30
2023-04-21T22:19:42.432Z,0.80
2023-04-21T22:22:08.918Z,1.10
2023-04-21T22:24:35.381Z,0.85
2023-04-21T22:27:04.505Z,0.68
2023-04-21T22:29:31.115Z,0.70
2023-04-21T22:31:58.057Z,0.77
2023-04-21T22:34:24.512Z,1.00
2023-04-21T22:36:52.011Z,1.05
2023-04-21T22:39:18.444Z,1.00
2023-04-21T22:41:45.646Z,0.80
2023-04-21T22:44:15.208Z,0.90
2023-04-21T22:46:41.783Z,0.98
2023-04-21T22:49:09.116Z,0.80
2023-04-21T22:51:36.357Z,0.80
2023-04-21T22:54:03.230Z,0.75
2023-04-21T22:56:31.956Z,0.85
2023-04-21T22:58:58.502Z,0.90
2023-04-21T23:01:25.277Z,0.88
2023-04-21T23:03:51.874Z,0.63
2023-04-21T23:06:18.321Z,0.63
2023-04-21T23:08:44.966Z,0.80
2023-04-21T23:11:13.793Z,0.80
2023-04-21T23:13:40.532Z,0.70
2023-04-21T23:16:07.248Z,1.08
2023-04-21T23:18:36.206Z,0.63
2023-04-21T23:21:02.575Z,1.00
2023-04-21T23:23:29.054Z,1.42
2023-04-21T23:25:55.485Z,1.02
2023-04-21T23:28:21.965Z,0.95
2023-04-21T23:30:48.506Z,0.98
2023-04-21T23:33:15.018Z,0.82
2023-04-21T23:35:41.461Z,0.60
2023-04-21T23:38:07.935Z,1.20
2023-04-21T23:40:34.305Z,0.80
2023-04-21T23:43:05.673Z,0.93
2023-04-21T23:45:32.288Z,0.95
2023-04-21T23:48:01.216Z,0.57
2023-04-21T23:50:27.660Z,0.90
2023-04-21T23:52:54.021Z,1.00
2023-04-21T23:55:20.593Z,0.50
2023-04-21T23:57:47.035Z,0.80
